sensor_id;sensor_type;location;lat;lon;timestamp;P1;durP1;ratioP1;P2;durP2;ratioP2
33740;SDS011;20065;48.380;10.892;2023-01-05T00:00:43;3.25;;;1.00;;
33740;SDS011;20065;48.380;10.892;2023-01-05T00:03:29;2.70;;;1.30;;
33740;SDS011;20065;48.380;10.892;2023-01-05T00:06:16;3.38;;;1.27;;
33740;SDS011;20065;48.380;10.892;2023-01-05T00:09:03;4.45;;;1.40;;
33740;SDS011;20065;48.380;10.892;2023-01-05T00:11:49;2.30;;;1.10;;
33740;SDS011;20065;48.380;10.892;2023-01-05T00:14:54;3.85;;;1.40;;
33740;SDS011;20065;48.380;10.892;2023-01-05T00:17:59;3.42;;;1.80;;
33740;SDS011;20065;48.380;10.892;2023-01-05T00:21:12;3.58;;;1.30;;
33740;SDS011;20065;48.380;10.892;2023-01-05T00:24:18;2.40;;;1.30;;
33740;SDS011;20065;48.380;10.892;2023-01-05T00:27:04;6.47;;;1.30;;
33740;SDS011;20065;48.380;10.892;2023-01-05T00:29:51;4.70;;;1.45;;
33740;SDS011;20065;48.380;10.892;2023-01-05T00:32:37;3.00;;;1.20;;
33740;SDS011;20065;48.380;10.892;2023-01-05T00:35:24;3.50;;;1.67;;
33740;SDS011;20065;48.380;10.892;2023-01-05T00:38:11;2.42;;;1.20;;
33740;SDS011;20065;48.380;10.892;2023-01-05T00:40:57;2.60;;;1.15;;
33740;SDS011;20065;48.380;10.892;2023-01-05T00:43:43;3.55;;;1.55;;
33740;SDS011;20065;48.380;10.892;2023-01-05T00:46:29;2.58;;;1.17;;
33740;SDS011;20065;48.380;10.892;2023-01-05T00:49:16;3.10;;;1.30;;
33740;SDS011;20065;48.380;10.892;2023-01-05T00:52:02;4.07;;;1.15;;
33740;SDS011;20065;48.380;10.892;2023-01-05T00:54:49;2.33;;;1.00;;
33740;SDS011;20065;48.380;10.892;2023-01-05T00:57:36;2.33;;;1.00;;
33740;SDS011;20065;48.380;10.892;2023-01-05T01:00:24;2.40;;;1.10;;
33740;SDS011;20065;48.380;10.892;2023-01-05T01:03:10;2.40;;;1.25;;
33740;SDS011;20065;48.380;10.892;2023-01-05T01:05:56;3.00;;;1.10;;
33740;SDS011;20065;48.380;10.892;2023-01-05T01:08:44;2.20;;;1.00;;
33740;SDS011;20065;48.380;10.892;2023-01-05T01:11:30;2.83;;;1.00;;
33740;SDS011;20065;48.380;10.892;2023-01-05T01:14:17;3.08;;;1.42;;
33740;SDS011;20065;48.380;10.892;2023-01-05T01:17:03;3.80;;;1.75;;
33740;SDS011;20065;48.380;10.892;2023-01-05T01:19:50;3.42;;;1.48;;
33740;SDS011;20065;48.380;10.892;2023-01-05T01:22:36;3.60;;;1.88;;
33740;SDS011;20065;48.380;10.892;2023-01-05T01:25:22;2.20;;;0.90;;
33740;SDS011;20065;48.380;10.892;2023-01-05T01:28:08;2.53;;;1.15;;
33740;SDS011;20065;48.380;10.892;2023-01-05T01:30:55;2.20;;;1.05;;
33740;SDS011;20065;48.380;10.892;2023-01-05T01:33:41;2.30;;;1.13;;
33740;SDS011;20065;48.380;10.892;2023-01-05T01:36:32;3.65;;;1.48;;
33740;SDS011;20065;48.380;10.892;2023-01-05T01:39:22;2.20;;;0.90;;
33740;SDS011;20065;48.380;10.892;2023-01-05T01:42:14;2.03;;;0.90;;
33740;SDS011;20065;48.380;10.892;2023-01-05T01:45:21;2.22;;;1.02;;
33740;SDS011;20065;48.380;10.892;2023-01-05T01:48:10;2.20;;;0.98;;
33740;SDS011;20065;48.380;10.892;2023-01-05T01:51:06;2.13;;;0.82;;
33740;SDS011;20065;48.380;10.892;2023-01-05T01:53:57;2.00;;;0.88;;
33740;SDS011;20065;48.380;10.892;2023-01-05T01:56:52;2.40;;;1.10;;
33740;SDS011;20065;48.380;10.892;2023-01-05T01:59:43;3.05;;;1.00;;
33740;SDS011;20065;48.380;10.892;2023-01-05T02:02:29;2.72;;;0.90;;
33740;SDS011;20065;48.380;10.892;2023-01-05T02:05:16;2.00;;;0.80;;
33740;SDS011;20065;48.380;10.892;2023-01-05T02:08:11;2.30;;;0.85;;
33740;SDS011;20065;48.380;10.892;2023-01-05T02:17:31;2.95;;;1.20;;
33740;SDS011;20065;48.380;10.892;2023-01-05T02:32:21;2.45;;;1.05;;
33740;SDS011;20065;48.380;10.892;2023-01-05T02:38:56;3.17;;;1.13;;
33740;SDS011;20065;48.380;10.892;2023-01-05T02:44:40;2.40;;;1.00;;
33740;SDS011;20065;48.380;10.892;2023-01-05T02:50:18;2.00;;;0.80;;
33740;SDS011;20065;48.380;10.892;2023-01-05T02:53:21;2.00;;;0.80;;
33740;SDS011;20065;48.380;10.892;2023-01-05T02:56:31;2.30;;;1.02;;
33740;SDS011;20065;48.380;10.892;2023-01-05T02:59:32;2.42;;;1.05;;
33740;SDS011;20065;48.380;10.892;2023-01-05T03:02:26;2.10;;;0.80;;
33740;SDS011;20065;48.380;10.892;2023-01-05T03:05:20;2.30;;;0.98;;
33740;SDS011;20065;48.380;10.892;2023-01-05T03:08:12;2.10;;;0.77;;
33740;SDS011;20065;48.380;10.892;2023-01-05T03:11:08;2.35;;;1.02;;
33740;SDS011;20065;48.380;10.892;2023-01-05T03:14:17;2.85;;;1.00;;
33740;SDS011;20065;48.380;10.892;2023-01-05T03:17:08;2.15;;;0.70;;
33740;SDS011;20065;48.380;10.892;2023-01-05T03:20:03;1.80;;;0.75;;
33740;SDS011;20065;48.380;10.892;2023-01-05T03:22:51;2.50;;;0.88;;
33740;SDS011;20065;48.380;10.892;2023-01-05T03:25:58;1.90;;;0.80;;
33740;SDS011;20065;48.380;10.892;2023-01-05T03:29:03;1.92;;;0.80;;
33740;SDS011;20065;48.380;10.892;2023-01-05T03:32:19;2.72;;;0.93;;
33740;SDS011;20065;48.380;10.892;2023-01-05T03:35:29;2.17;;;0.80;;
33740;SDS011;20065;48.380;10.892;2023-01-05T03:38:24;2.92;;;1.08;;
33740;SDS011;20065;48.380;10.892;2023-01-05T03:41:11;2.35;;;0.90;;
33740;SDS011;20065;48.380;10.892;2023-01-05T03:44:00;2.00;;;0.88;;
33740;SDS011;20065;48.380;10.892;2023-01-05T03:46:50;2.05;;;0.73;;
33740;SDS011;20065;48.380;10.892;2023-01-05T03:49:37;2.00;;;0.70;;
33740;SDS011;20065;48.380;10.892;2023-01-05T03:52:23;1.88;;;0.75;;
33740;SDS011;20065;48.380;10.892;2023-01-05T03:55:09;2.42;;;0.90;;
33740;SDS011;20065;48.380;10.892;2023-01-05T03:57:56;3.20;;;1.10;;
33740;SDS011;20065;48.380;10.892;2023-01-05T04:00:42;2.10;;;0.80;;
33740;SDS011;20065;48.380;10.892;2023-01-05T04:03:31;2.10;;;0.80;;
33740;SDS011;20065;48.380;10.892;2023-01-05T04:06:20;1.80;;;0.70;;
33740;SDS011;20065;48.380;10.892;2023-01-05T04:09:06;1.80;;;0.63;;
33740;SDS011;20065;48.380;10.892;2023-01-05T04:11:53;2.28;;;0.88;;
33740;SDS011;20065;48.380;10.892;2023-01-05T04:14:39;1.85;;;0.70;;
33740;SDS011;20065;48.380;10.892;2023-01-05T04:17:25;1.77;;;0.60;;
33740;SDS011;20065;48.380;10.892;2023-01-05T04:20:13;2.28;;;0.88;;
33740;SDS011;20065;48.380;10.892;2023-01-05T04:22:59;2.25;;;0.80;;
33740;SDS011;20065;48.380;10.892;2023-01-05T04:25:46;2.50;;;0.60;;
33740;SDS011;20065;48.380;10.892;2023-01-05T04:28:38;2.10;;;0.80;;
33740;SDS011;20065;48.380;10.892;2023-01-05T04:31:24;3.75;;;0.65;;
33740;SDS011;20065;48.380;10.892;2023-01-05T04:34:13;1.80;;;0.63;;
33740;SDS011;20065;48.380;10.892;2023-01-05T04:36:59;1.85;;;0.65;;
33740;SDS011;20065;48.380;10.892;2023-01-05T04:39:48;1.90;;;0.70;;
33740;SDS011;20065;48.380;10.892;2023-01-05T04:42:35;2.13;;;0.80;;
33740;SDS011;20065;48.380;10.892;2023-01-05T04:45:21;1.85;;;0.63;;
33740;SDS011;20065;48.380;10.892;2023-01-05T04:48:08;1.75;;;0.57;;
33740;SDS011;20065;48.380;10.892;2023-01-05T04:50:54;1.90;;;0.60;;
33740;SDS011;20065;48.380;10.892;2023-01-05T04:53:47;1.77;;;0.52;;
33740;SDS011;20065;48.380;10.892;2023-01-05T04:56:36;1.90;;;0.57;;
33740;SDS011;20065;48.380;10.892;2023-01-05T04:59:24;1.80;;;0.60;;
33740;SDS011;20065;48.380;10.892;2023-01-05T05:02:11;1.80;;;0.50;;
33740;SDS011;20065;48.380;10.892;2023-01-05T05:05:01;2.03;;;0.73;;
33740;SDS011;20065;48.380;10.892;2023-01-05T05:07:47;1.98;;;0.65;;
33740;SDS011;20065;48.380;10.892;2023-01-05T05:10:34;2.20;;;0.80;;
33740;SDS011;20065;48.380;10.892;2023-01-05T05:13:20;2.65;;;0.70;;
33740;SDS011;20065;48.380;10.892;2023-01-05T05:16:09;3.75;;;0.80;;
33740;SDS011;20065;48.380;10.892;2023-01-05T05:18:55;1.70;;;0.60;;
33740;SDS011;20065;48.380;10.892;2023-01-05T05:21:45;3.15;;;0.60;;
33740;SDS011;20065;48.380;10.892;2023-01-05T05:24:31;2.92;;;0.70;;
33740;SDS011;20065;48.380;10.892;2023-01-05T05:27:18;2.00;;;0.70;;
33740;SDS011;20065;48.380;10.892;2023-01-05T05:30:04;2.90;;;0.80;;
33740;SDS011;20065;48.380;10.892;2023-01-05T05:32:51;2.30;;;1.00;;
33740;SDS011;20065;48.380;10.892;2023-01-05T05:35:37;1.83;;;0.68;;
33740;SDS011;20065;48.380;10.892;2023-01-05T05:38:23;1.88;;;0.55;;
33740;SDS011;20065;48.380;10.892;2023-01-05T05:41:09;1.95;;;0.70;;
33740;SDS011;20065;48.380;10.892;2023-01-05T05:43:55;2.53;;;0.95;;
33740;SDS011;20065;48.380;10.892;2023-01-05T05:46:45;1.80;;;0.60;;
33740;SDS011;20065;48.380;10.892;2023-01-05T05:49:31;2.20;;;0.85;;
33740;SDS011;20065;48.380;10.892;2023-01-05T05:52:17;3.00;;;1.00;;
33740;SDS011;20065;48.380;10.892;2023-01-05T05:55:03;1.90;;;0.60;;
33740;SDS011;20065;48.380;10.892;2023-01-05T05:57:50;2.10;;;0.68;;
33740;SDS011;20065;48.380;10.892;2023-01-05T06:00:36;1.98;;;0.50;;
33740;SDS011;20065;48.380;10.892;2023-01-05T06:03:22;1.87;;;0.73;;
33740;SDS011;20065;48.380;10.892;2023-01-05T06:06:08;3.05;;;0.70;;
33740;SDS011;20065;48.380;10.892;2023-01-05T06:08:55;2.13;;;0.85;;
33740;SDS011;20065;48.380;10.892;2023-01-05T06:11:41;2.00;;;0.75;;
33740;SDS011;20065;48.380;10.892;2023-01-05T06:14:27;1.90;;;0.60;;
33740;SDS011;20065;48.380;10.892;2023-01-05T06:17:13;1.95;;;0.80;;
33740;SDS011;20065;48.380;10.892;2023-01-05T06:19:59;1.85;;;0.60;;
33740;SDS011;20065;48.380;10.892;2023-01-05T06:22:45;1.98;;;0.75;;
33740;SDS011;20065;48.380;10.892;2023-01-05T06:25:31;1.75;;;0.57;;
33740;SDS011;20065;48.380;10.892;2023-01-05T06:28:18;7.57;;;1.00;;
33740;SDS011;20065;48.380;10.892;2023-01-05T06:31:04;2.85;;;0.88;;
33740;SDS011;20065;48.380;10.892;2023-01-05T06:33:51;2.30;;;0.90;;
33740;SDS011;20065;48.380;10.892;2023-01-05T06:36:37;2.33;;;0.80;;
33740;SDS011;20065;48.380;10.892;2023-01-05T06:39:23;1.70;;;0.55;;
33740;SDS011;20065;48.380;10.892;2023-01-05T06:42:09;3.17;;;0.80;;
33740;SDS011;20065;48.380;10.892;2023-01-05T06:44:55;2.40;;;0.80;;
33740;SDS011;20065;48.380;10.892;2023-01-05T06:47:42;2.00;;;0.80;;
33740;SDS011;20065;48.380;10.892;2023-01-05T06:50:28;2.33;;;1.05;;
33740;SDS011;20065;48.380;10.892;2023-01-05T06:53:16;2.10;;;0.90;;
33740;SDS011;20065;48.380;10.892;2023-01-05T06:56:02;2.00;;;0.75;;
33740;SDS011;20065;48.380;10.892;2023-01-05T06:58:49;3.45;;;1.35;;
33740;SDS011;20065;48.380;10.892;2023-01-05T07:01:35;2.35;;;0.75;;
33740;SDS011;20065;48.380;10.892;2023-01-05T07:04:21;2.00;;;0.80;;
33740;SDS011;20065;48.380;10.892;2023-01-05T07:07:09;2.03;;;0.80;;
33740;SDS011;20065;48.380;10.892;2023-01-05T07:10:01;1.98;;;0.60;;
33740;SDS011;20065;48.380;10.892;2023-01-05T07:12:48;2.13;;;0.82;;
33740;SDS011;20065;48.380;10.892;2023-01-05T07:15:34;2.13;;;0.77;;
33740;SDS011;20065;48.380;10.892;2023-01-05T07:18:20;2.05;;;0.85;;
33740;SDS011;20065;48.380;10.892;2023-01-05T07:21:07;2.75;;;0.80;;
33740;SDS011;20065;48.380;10.892;2023-01-05T07:23:53;1.98;;;0.90;;
33740;SDS011;20065;48.380;10.892;2023-01-05T07:26:39;2.17;;;0.75;;
33740;SDS011;20065;48.380;10.892;2023-01-05T07:29:25;2.22;;;0.90;;
33740;SDS011;20065;48.380;10.892;2023-01-05T07:32:12;2.40;;;0.82;;
33740;SDS011;20065;48.380;10.892;2023-01-05T07:34:58;2.42;;;0.90;;
33740;SDS011;20065;48.380;10.892;2023-01-05T07:37:44;5.00;;;0.98;;
33740;SDS011;20065;48.380;10.892;2023-01-05T07:40:30;1.70;;;0.70;;
33740;SDS011;20065;48.380;10.892;2023-01-05T07:43:16;2.85;;;0.80;;
33740;SDS011;20065;48.380;10.892;2023-01-05T07:46:03;2.28;;;0.70;;
33740;SDS011;20065;48.380;10.892;2023-01-05T07:48:49;1.92;;;0.70;;
33740;SDS011;20065;48.380;10.892;2023-01-05T07:51:35;1.90;;;0.75;;
33740;SDS011;20065;48.380;10.892;2023-01-05T07:54:22;2.30;;;0.70;;
33740;SDS011;20065;48.380;10.892;2023-01-05T07:57:08;2.05;;;0.80;;
33740;SDS011;20065;48.380;10.892;2023-01-05T07:59:54;2.00;;;0.73;;
33740;SDS011;20065;48.380;10.892;2023-01-05T08:02:40;2.97;;;1.05;;
33740;SDS011;20065;48.380;10.892;2023-01-05T08:05:27;2.00;;;0.90;;
33740;SDS011;20065;48.380;10.892;2023-01-05T08:08:18;2.10;;;0.65;;
33740;SDS011;20065;48.380;10.892;2023-01-05T08:11:05;2.20;;;0.70;;
33740;SDS011;20065;48.380;10.892;2023-01-05T08:13:52;2.38;;;0.90;;
33740;SDS011;20065;48.380;10.892;2023-01-05T08:16:44;2.17;;;0.80;;
33740;SDS011;20065;48.380;10.892;2023-01-05T08:19:31;1.90;;;0.70;;
33740;SDS011;20065;48.380;10.892;2023-01-05T08:22:17;2.35;;;0.82;;
33740;SDS011;20065;48.380;10.892;2023-01-05T08:25:03;2.25;;;0.50;;
33740;SDS011;20065;48.380;10.892;2023-01-05T08:27:49;1.90;;;0.80;;
33740;SDS011;20065;48.380;10.892;2023-01-05T08:30:35;2.10;;;0.90;;
33740;SDS011;20065;48.380;10.892;2023-01-05T08:33:22;2.00;;;0.80;;
33740;SDS011;20065;48.380;10.892;2023-01-05T08:36:09;2.05;;;0.73;;
33740;SDS011;20065;48.380;10.892;2023-01-05T08:38:57;2.38;;;1.05;;
33740;SDS011;20065;48.380;10.892;2023-01-05T08:41:45;2.33;;;0.85;;
33740;SDS011;20065;48.380;10.892;2023-01-05T08:44:32;2.30;;;1.00;;
33740;SDS011;20065;48.380;10.892;2023-01-05T08:47:18;3.20;;;1.38;;
33740;SDS011;20065;48.380;10.892;2023-01-05T08:50:05;2.88;;;1.40;;
33740;SDS011;20065;48.380;10.892;2023-01-05T08:52:54;2.90;;;1.50;;
33740;SDS011;20065;48.380;10.892;2023-01-05T08:55:41;2.53;;;1.30;;
33740;SDS011;20065;48.380;10.892;2023-01-05T08:58:27;2.58;;;1.50;;
33740;SDS011;20065;48.380;10.892;2023-01-05T09:01:14;2.80;;;1.40;;
33740;SDS011;20065;48.380;10.892;2023-01-05T09:04:01;3.97;;;1.90;;
33740;SDS011;20065;48.380;10.892;2023-01-05T09:06:47;3.90;;;1.90;;
33740;SDS011;20065;48.380;10.892;2023-01-05T09:09:34;3.28;;;2.08;;
33740;SDS011;20065;48.380;10.892;2023-01-05T09:12:20;6.63;;;1.83;;
33740;SDS011;20065;48.380;10.892;2023-01-05T09:15:09;2.95;;;1.40;;
33740;SDS011;20065;48.380;10.892;2023-01-05T09:17:55;4.68;;;1.10;;
33740;SDS011;20065;48.380;10.892;2023-01-05T09:20:41;2.38;;;1.00;;
33740;SDS011;20065;48.380;10.892;2023-01-05T09:23:28;2.80;;;1.20;;
33740;SDS011;20065;48.380;10.892;2023-01-05T09:26:14;2.83;;;1.02;;
33740;SDS011;20065;48.380;10.892;2023-01-05T09:29:00;3.53;;;1.20;;
33740;SDS011;20065;48.380;10.892;2023-01-05T09:31:46;2.45;;;1.05;;
33740;SDS011;20065;48.380;10.892;2023-01-05T09:34:33;3.10;;;1.20;;
33740;SDS011;20065;48.380;10.892;2023-01-05T09:37:19;3.92;;;1.50;;
33740;SDS011;20065;48.380;10.892;2023-01-05T09:40:05;2.83;;;1.10;;
33740;SDS011;20065;48.380;10.892;2023-01-05T09:42:52;3.60;;;1.23;;
33740;SDS011;20065;48.380;10.892;2023-01-05T09:45:39;3.10;;;1.30;;
33740;SDS011;20065;48.380;10.892;2023-01-05T09:48:25;3.25;;;1.27;;
33740;SDS011;20065;48.380;10.892;2023-01-05T09:51:23;3.95;;;1.40;;
33740;SDS011;20065;48.380;10.892;2023-01-05T09:54:14;3.13;;;1.65;;
33740;SDS011;20065;48.380;10.892;2023-01-05T09:57:02;3.88;;;1.67;;
33740;SDS011;20065;48.380;10.892;2023-01-05T09:59:50;4.30;;;2.15;;
33740;SDS011;20065;48.380;10.892;2023-01-05T10:05:31;3.72;;;1.60;;
33740;SDS011;20065;48.380;10.892;2023-01-05T10:08:34;3.65;;;1.27;;
33740;SDS011;20065;48.380;10.892;2023-01-05T10:15:18;2.53;;;1.10;;
33740;SDS011;20065;48.380;10.892;2023-01-05T10:18:08;2.10;;;0.80;;
33740;SDS011;20065;48.380;10.892;2023-01-05T10:24:46;3.65;;;1.17;;
33740;SDS011;20065;48.380;10.892;2023-01-05T10:31:05;3.10;;;1.20;;
33740;SDS011;20065;48.380;10.892;2023-01-05T10:34:03;3.30;;;1.17;;
33740;SDS011;20065;48.380;10.892;2023-01-05T10:40:25;4.35;;;1.20;;
33740;SDS011;20065;48.380;10.892;2023-01-05T10:46:38;3.00;;;1.20;;
33740;SDS011;20065;48.380;10.892;2023-01-05T10:49:28;3.50;;;1.48;;
33740;SDS011;20065;48.380;10.892;2023-01-05T10:52:17;3.22;;;1.60;;
33740;SDS011;20065;48.380;10.892;2023-01-05T10:55:09;3.08;;;1.45;;
33740;SDS011;20065;48.380;10.892;2023-01-05T10:57:58;3.33;;;1.60;;
33740;SDS011;20065;48.380;10.892;2023-01-05T11:00:44;3.65;;;1.65;;
33740;SDS011;20065;48.380;10.892;2023-01-05T11:03:40;5.55;;;1.63;;
33740;SDS011;20065;48.380;10.892;2023-01-05T11:06:31;3.65;;;1.80;;
33740;SDS011;20065;48.380;10.892;2023-01-05T11:09:19;4.10;;;2.10;;
33740;SDS011;20065;48.380;10.892;2023-01-05T11:12:14;9.98;;;2.03;;
33740;SDS011;20065;48.380;10.892;2023-01-05T11:15:09;6.07;;;2.63;;
33740;SDS011;20065;48.380;10.892;2023-01-05T11:17:57;4.70;;;2.40;;
33740;SDS011;20065;48.380;10.892;2023-01-05T11:21:03;4.82;;;2.42;;
33740;SDS011;20065;48.380;10.892;2023-01-05T11:23:56;3.72;;;1.70;;
33740;SDS011;20065;48.380;10.892;2023-01-05T11:26:47;4.78;;;2.28;;
33740;SDS011;20065;48.380;10.892;2023-01-05T11:29:54;4.07;;;1.70;;
33740;SDS011;20065;48.380;10.892;2023-01-05T11:33:02;3.58;;;1.50;;
33740;SDS011;20065;48.380;10.892;2023-01-05T11:36:02;3.50;;;1.60;;
33740;SDS011;20065;48.380;10.892;2023-01-05T11:38:50;3.60;;;1.75;;
33740;SDS011;20065;48.380;10.892;2023-01-05T11:41:44;2.95;;;1.50;;
33740;SDS011;20065;48.380;10.892;2023-01-05T11:44:31;3.70;;;1.17;;
33740;SDS011;20065;48.380;10.892;2023-01-05T11:47:26;3.65;;;1.35;;
33740;SDS011;20065;48.380;10.892;2023-01-05T11:50:22;2.30;;;1.10;;
33740;SDS011;20065;48.380;10.892;2023-01-05T11:53:29;2.30;;;1.00;;
33740;SDS011;20065;48.380;10.892;2023-01-05T11:56:32;3.25;;;1.00;;
33740;SDS011;20065;48.380;10.892;2023-01-05T11:59:27;2.75;;;1.10;;
33740;SDS011;20065;48.380;10.892;2023-01-05T12:05:35;5.97;;;2.30;;
33740;SDS011;20065;48.380;10.892;2023-01-05T12:08:29;2.30;;;0.80;;
33740;SDS011;20065;48.380;10.892;2023-01-05T12:11:26;5.05;;;2.85;;
33740;SDS011;20065;48.380;10.892;2023-01-05T12:17:28;2.78;;;1.10;;
33740;SDS011;20065;48.380;10.892;2023-01-05T12:41:52;6.32;;;2.13;;
33740;SDS011;20065;48.380;10.892;2023-01-05T12:48:03;8.25;;;2.30;;
33740;SDS011;20065;48.380;10.892;2023-01-05T12:54:09;7.68;;;2.70;;
33740;SDS011;20065;48.380;10.892;2023-01-05T12:57:15;4.45;;;2.10;;
33740;SDS011;20065;48.380;10.892;2023-01-05T13:00:09;6.72;;;2.13;;
33740;SDS011;20065;48.380;10.892;2023-01-05T13:03:00;7.60;;;2.03;;
33740;SDS011;20065;48.380;10.892;2023-01-05T13:09:04;9.90;;;1.75;;
33740;SDS011;20065;48.380;10.892;2023-01-05T13:12:03;6.03;;;2.00;;
33740;SDS011;20065;48.380;10.892;2023-01-05T13:15:10;7.97;;;1.90;;
33740;SDS011;20065;48.380;10.892;2023-01-05T13:18:04;6.82;;;1.98;;
33740;SDS011;20065;48.380;10.892;2023-01-05T13:20:56;10.95;;;2.20;;
33740;SDS011;20065;48.380;10.892;2023-01-05T13:23:52;9.82;;;2.83;;
33740;SDS011;20065;48.380;10.892;2023-01-05T13:26:43;8.27;;;3.47;;
33740;SDS011;20065;48.380;10.892;2023-01-05T13:29:35;8.32;;;2.53;;
33740;SDS011;20065;48.380;10.892;2023-01-05T13:38:38;9.50;;;2.35;;
33740;SDS011;20065;48.380;10.892;2023-01-05T13:54:49;9.18;;;2.20;;
33740;SDS011;20065;48.380;10.892;2023-01-05T13:57:41;9.70;;;3.10;;
33740;SDS011;20065;48.380;10.892;2023-01-05T14:00:30;7.25;;;2.10;;
33740;SDS011;20065;48.380;10.892;2023-01-05T14:03:21;8.52;;;2.65;;
33740;SDS011;20065;48.380;10.892;2023-01-05T14:06:23;10.65;;;2.75;;
33740;SDS011;20065;48.380;10.892;2023-01-05T14:12:29;9.35;;;2.70;;
33740;SDS011;20065;48.380;10.892;2023-01-05T14:24:45;10.27;;;2.85;;
33740;SDS011;20065;48.380;10.892;2023-01-05T14:27:35;9.18;;;2.42;;
33740;SDS011;20065;48.380;10.892;2023-01-05T14:34:04;8.82;;;2.53;;
33740;SDS011;20065;48.380;10.892;2023-01-05T14:37:00;11.52;;;2.10;;
33740;SDS011;20065;48.380;10.892;2023-01-05T14:39:49;7.68;;;2.50;;
33740;SDS011;20065;48.380;10.892;2023-01-05T14:42:38;8.48;;;2.67;;
33740;SDS011;20065;48.380;10.892;2023-01-05T14:48:33;7.97;;;2.83;;
33740;SDS011;20065;48.380;10.892;2023-01-05T14:51:24;13.07;;;3.28;;
33740;SDS011;20065;48.380;10.892;2023-01-05T14:55:07;9.63;;;3.08;;
33740;SDS011;20065;48.380;10.892;2023-01-05T14:57:51;5.75;;;2.70;;
33740;SDS011;20065;48.380;10.892;2023-01-05T15:04:06;9.80;;;3.00;;
33740;SDS011;20065;48.380;10.892;2023-01-05T15:07:05;12.60;;;3.60;;
33740;SDS011;20065;48.380;10.892;2023-01-05T15:22:50;13.15;;;4.10;;
33740;SDS011;20065;48.380;10.892;2023-01-05T15:32:09;8.90;;;3.40;;
33740;SDS011;20065;48.380;10.892;2023-01-05T15:35:14;11.50;;;3.53;;
33740;SDS011;20065;48.380;10.892;2023-01-05T15:41:28;12.85;;;3.30;;
33740;SDS011;20065;48.380;10.892;2023-01-05T15:44:15;10.50;;;3.10;;
33740;SDS011;20065;48.380;10.892;2023-01-05T15:47:07;9.30;;;2.67;;
33740;SDS011;20065;48.380;10.892;2023-01-05T15:49:55;10.38;;;3.13;;
33740;SDS011;20065;48.380;10.892;2023-01-05T15:52:50;12.07;;;3.33;;
33740;SDS011;20065;48.380;10.892;2023-01-05T15:55:42;9.40;;;2.85;;
33740;SDS011;20065;48.380;10.892;2023-01-05T15:58:31;10.35;;;2.80;;
33740;SDS011;20065;48.380;10.892;2023-01-05T16:01:30;10.68;;;3.85;;
33740;SDS011;20065;48.380;10.892;2023-01-05T16:04:21;17.23;;;3.92;;
33740;SDS011;20065;48.380;10.892;2023-01-05T16:07:08;8.20;;;3.83;;
33740;SDS011;20065;48.380;10.892;2023-01-05T16:09:56;18.85;;;4.15;;
33740;SDS011;20065;48.380;10.892;2023-01-05T16:12:42;14.70;;;3.25;;
33740;SDS011;20065;48.380;10.892;2023-01-05T16:15:30;13.05;;;3.22;;
33740;SDS011;20065;48.380;10.892;2023-01-05T16:18:20;11.05;;;3.47;;
33740;SDS011;20065;48.380;10.892;2023-01-05T16:21:12;10.70;;;3.60;;
33740;SDS011;20065;48.380;10.892;2023-01-05T16:24:04;8.90;;;4.25;;
33740;SDS011;20065;48.380;10.892;2023-01-05T16:27:03;9.70;;;3.70;;
33740;SDS011;20065;48.380;10.892;2023-01-05T16:29:53;9.82;;;3.58;;
33740;SDS011;20065;48.380;10.892;2023-01-05T16:32:58;9.80;;;4.13;;
33740;SDS011;20065;48.380;10.892;2023-01-05T16:35:51;20.27;;;5.03;;
33740;SDS011;20065;48.380;10.892;2023-01-05T16:38:50;14.60;;;6.72;;
33740;SDS011;20065;48.380;10.892;2023-01-05T16:41:36;13.77;;;4.30;;
33740;SDS011;20065;48.380;10.892;2023-01-05T16:44:49;17.70;;;5.03;;
33740;SDS011;20065;48.380;10.892;2023-01-05T16:47:39;17.08;;;4.97;;
33740;SDS011;20065;48.380;10.892;2023-01-05T16:50:49;23.80;;;4.75;;
33740;SDS011;20065;48.380;10.892;2023-01-05T16:53:39;14.27;;;3.65;;
33740;SDS011;20065;48.380;10.892;2023-01-05T17:05:16;12.88;;;5.07;;
33740;SDS011;20065;48.380;10.892;2023-01-05T17:08:24;11.77;;;3.83;;
33740;SDS011;20065;48.380;10.892;2023-01-05T17:11:13;17.25;;;4.18;;
33740;SDS011;20065;48.380;10.892;2023-01-05T17:13:59;9.65;;;3.35;;
33740;SDS011;20065;48.380;10.892;2023-01-05T17:16:47;6.95;;;3.08;;
33740;SDS011;20065;48.380;10.892;2023-01-05T17:19:33;9.65;;;4.50;;
33740;SDS011;20065;48.380;10.892;2023-01-05T17:22:20;15.95;;;3.70;;
33740;SDS011;20065;48.380;10.892;2023-01-05T17:25:10;11.02;;;3.47;;
33740;SDS011;20065;48.380;10.892;2023-01-05T17:27:58;15.63;;;4.57;;
33740;SDS011;20065;48.380;10.892;2023-01-05T17:30:44;13.07;;;4.72;;
33740;SDS011;20065;48.380;10.892;2023-01-05T17:33:30;10.20;;;4.72;;
33740;SDS011;20065;48.380;10.892;2023-01-05T17:36:17;10.05;;;4.05;;
33740;SDS011;20065;48.380;10.892;2023-01-05T17:39:05;10.73;;;4.85;;
33740;SDS011;20065;48.380;10.892;2023-01-05T17:41:51;18.60;;;6.05;;
33740;SDS011;20065;48.380;10.892;2023-01-05T17:44:57;9.55;;;4.75;;
33740;SDS011;20065;48.380;10.892;2023-01-05T17:47:44;12.35;;;4.80;;
33740;SDS011;20065;48.380;10.892;2023-01-05T17:50:31;13.60;;;5.10;;
33740;SDS011;20065;48.380;10.892;2023-01-05T17:53:18;14.82;;;5.90;;
33740;SDS011;20065;48.380;10.892;2023-01-05T17:56:04;17.83;;;9.07;;
33740;SDS011;20065;48.380;10.892;2023-01-05T17:58:51;19.08;;;9.25;;
33740;SDS011;20065;48.380;10.892;2023-01-05T18:01:37;28.40;;;12.52;;
33740;SDS011;20065;48.380;10.892;2023-01-05T18:04:23;28.73;;;14.52;;
33740;SDS011;20065;48.380;10.892;2023-01-05T18:07:09;15.60;;;7.20;;
33740;SDS011;20065;48.380;10.892;2023-01-05T18:09:56;21.30;;;7.05;;
33740;SDS011;20065;48.380;10.892;2023-01-05T18:12:42;12.80;;;5.20;;
33740;SDS011;20065;48.380;10.892;2023-01-05T18:15:29;15.18;;;5.70;;
33740;SDS011;20065;48.380;10.892;2023-01-05T18:18:15;18.38;;;6.38;;
33740;SDS011;20065;48.380;10.892;2023-01-05T18:21:03;13.70;;;5.40;;
33740;SDS011;20065;48.380;10.892;2023-01-05T18:23:50;13.27;;;5.88;;
33740;SDS011;20065;48.380;10.892;2023-01-05T18:26:36;10.13;;;4.60;;
33740;SDS011;20065;48.380;10.892;2023-01-05T18:29:22;10.10;;;4.47;;
33740;SDS011;20065;48.380;10.892;2023-01-05T18:32:09;10.68;;;5.22;;
33740;SDS011;20065;48.380;10.892;2023-01-05T18:34:55;11.98;;;4.82;;
33740;SDS011;20065;48.380;10.892;2023-01-05T18:37:42;10.60;;;4.65;;
33740;SDS011;20065;48.380;10.892;2023-01-05T18:40:44;9.48;;;4.20;;
33740;SDS011;20065;48.380;10.892;2023-01-05T18:43:32;9.50;;;4.53;;
33740;SDS011;20065;48.380;10.892;2023-01-05T18:46:18;11.48;;;4.22;;
33740;SDS011;20065;48.380;10.892;2023-01-05T18:49:04;12.10;;;3.70;;
33740;SDS011;20065;48.380;10.892;2023-01-05T18:51:50;7.82;;;3.15;;
33740;SDS011;20065;48.380;10.892;2023-01-05T18:54:37;7.22;;;3.65;;
33740;SDS011;20065;48.380;10.892;2023-01-05T18:57:23;10.65;;;4.70;;
33740;SDS011;20065;48.380;10.892;2023-01-05T19:00:10;15.00;;;5.50;;
33740;SDS011;20065;48.380;10.892;2023-01-05T19:02:56;13.48;;;7.07;;
33740;SDS011;20065;48.380;10.892;2023-01-05T19:05:43;9.20;;;5.25;;
33740;SDS011;20065;48.380;10.892;2023-01-05T19:08:29;14.38;;;6.10;;
33740;SDS011;20065;48.380;10.892;2023-01-05T19:11:24;12.13;;;4.30;;
33740;SDS011;20065;48.380;10.892;2023-01-05T19:14:11;14.73;;;5.20;;
33740;SDS011;20065;48.380;10.892;2023-01-05T19:16:59;10.65;;;5.10;;
33740;SDS011;20065;48.380;10.892;2023-01-05T19:19:45;10.35;;;4.43;;
33740;SDS011;20065;48.380;10.892;2023-01-05T19:22:31;8.90;;;4.82;;
33740;SDS011;20065;48.380;10.892;2023-01-05T19:25:19;10.48;;;4.18;;